Temp: 3.9°C   Baro: 1036.4mb
  Wind: 4.0mph   Dir: W (273°)
  Rain: 0.0mm (0.0mm/hr)
  Solar: 0W/m2  Hum: 84%

Historic data

Bath Spa Weather Station Historical Data
Daily Summary for December 31, 2019 Units:  Both    English   Metric
Daily Weekly Monthly Yearly Custom
  High: Low: Average:
Temperature: 48 °F /  8.9 °C 37.9 °F /  3.3 °C 43.9 °F /  6.6 °C
Dew Point: 45.1 °F /  7.3 °C 36.3 °F /  2.4 °C 41.6 °F /  5.3 °C
Humidity: 97% 84% 92%
Wind Speed: 10mph /  16.1km/h - 3.4mph /  5.5km/h
Wind Gust: 17mph /  27.4km/h - -
Wind- - SE
Pressure: 30.46 in /  1031.4 hPa 30.40 in /  1029.3 hPa -
Precipitation: 0.01 in /  0.25 mm    
Historical Graphs
 
 
Tabular Data for December 31, 2019
Time Temperature Dew Point Pressure Wind Wind Speed Wind Gust Humidity Rainfall Rate (Hourly) solar
00:09 40.5 °F /  4.7 °C 38.8 °F /  3.8 °C 30.40in /  1029.3hPa Calm   2mph /  3.2km/h 94% 0.00in /  0mm 0 W/m2
00:14 40.5 °F /  4.7 °C 38.8 °F /  3.8 °C 30.40in /  1029.3hPa NNW 0.4mph /  0.6km/h 1mph /  1.6km/h 94% 0.00in /  0mm 0 W/m2
00:19 40.5 °F /  4.7 °C 38.8 °F /  3.8 °C 30.40in /  1029.3hPa Calm   1mph /  1.6km/h 94% 0.00in /  0mm 0 W/m2
00:24 40.1 °F /  4.5 °C 38.5 °F /  3.6 °C 30.41in /  1029.7hPa Calm   1mph /  1.6km/h 94% 0.00in /  0mm 0 W/m2
00:29 39.9 °F /  4.4 °C 38.3 °F /  3.5 °C 30.40in /  1029.3hPa Calm     94% 0.00in /  0mm 0 W/m2
00:34 39.9 °F /  4.4 °C 38.3 °F /  3.5 °C 30.40in /  1029.3hPa Calm     94% 0.00in /  0mm 0 W/m2
00:39 39.8 °F /  4.3 °C 38.2 °F /  3.4 °C 30.40in /  1029.3hPa NNW 0.6mph /  1km/h 2mph /  3.2km/h 94% 0.00in /  0mm 0 W/m2
00:44 39.7 °F /  4.3 °C 38.1 °F /  3.4 °C 30.40in /  1029.3hPa NNW 0.4mph /  0.6km/h 2mph /  3.2km/h 94% 0.00in /  0mm 0 W/m2
00:49 39.6 °F /  4.2 °C 37.9 °F /  3.3 °C 30.40in /  1029.3hPa NNW 0.7mph /  1.1km/h 2mph /  3.2km/h 94% 0.00in /  0mm 0 W/m2
00:54 39.6 °F /  4.2 °C 38.3 °F /  3.5 °C 30.40in /  1029.3hPa NNW 0.5mph /  0.8km/h 1mph /  1.6km/h 95% 0.00in /  0mm 0 W/m2
00:59 39.4 °F /  4.1 °C 38 °F /  3.3 °C 30.40in /  1029.3hPa NNW 0.4mph /  0.6km/h 1mph /  1.6km/h 94.6% 0.00in /  0mm 0 W/m2
01:04 39.3 °F /  4.1 °C 37.7 °F /  3.2 °C 30.40in /  1029.3hPa Calm   1mph /  1.6km/h 94% 0.00in /  0mm 0 W/m2
01:09 38.8 °F /  3.8 °C 37.2 °F /  2.9 °C 30.40in /  1029.3hPa NNW 0.2mph /  0.3km/h 1mph /  1.6km/h 94% 0.00in /  0mm 0 W/m2
01:14 38.7 °F /  3.7 °C 37 °F /  2.8 °C 30.40in /  1029.3hPa Calm   1mph /  1.6km/h 94% 0.00in /  0mm 0 W/m2
01:19 38.7 °F /  3.7 °C 37 °F /  2.8 °C 30.40in /  1029.3hPa Calm     94% 0.00in /  0mm 0 W/m2
01:24 38.6 °F /  3.7 °C 36.9 °F /  2.7 °C 30.40in /  1029.3hPa NNW 0.4mph /  0.6km/h 1mph /  1.6km/h 94% 0.00in /  0mm 0 W/m2
01:29 38.3 °F /  3.5 °C 36.9 °F /  2.7 °C 30.40in /  1029.3hPa NNW 1.1mph /  1.8km/h 2mph /  3.2km/h 94.8% 0.00in /  0mm 0 W/m2
01:34 37.9 °F /  3.3 °C 36.3 °F /  2.4 °C 30.40in /  1029.3hPa NNW 1.2mph /  1.9km/h 3mph /  4.8km/h 94% 0.00in /  0mm 0 W/m2
01:39 38.1 °F /  3.4 °C 36.6 °F /  2.6 °C 30.40in /  1029.3hPa NNW 1.6mph /  2.6km/h 3mph /  4.8km/h 94.4% 0.00in /  0mm 0 W/m2
01:44 38.1 °F /  3.4 °C 36.9 °F /  2.7 °C 30.40in /  1029.3hPa NW 1.1mph /  1.8km/h 3mph /  4.8km/h 95% 0.00in /  0mm 0 W/m2
01:49 38.1 °F /  3.4 °C 36.9 °F /  2.7 °C 30.41in /  1029.7hPa NW 0.8mph /  1.3km/h 3mph /  4.8km/h 95% 0.00in /  0mm 0 W/m2
01:54 38.1 °F /  3.4 °C 36.9 °F /  2.7 °C 30.42in /  1030hPa NW 1.9mph /  3.1km/h 4mph /  6.4km/h 95% 0.00in /  0mm 0 W/m2
01:59 37.9 °F /  3.3 °C 36.7 °F /  2.6 °C 30.41in /  1029.7hPa WNW 0.2mph /  0.3km/h 2mph /  3.2km/h 95% 0.00in /  0mm 0 W/m2
02:04 37.9 °F /  3.3 °C 36.7 °F /  2.6 °C 30.42in /  1030hPa WNW 0.8mph /  1.3km/h 2mph /  3.2km/h 95% 0.00in /  0mm 0 W/m2
02:09 37.9 °F /  3.3 °C 36.7 °F /  2.6 °C 30.42in /  1030hPa NNW 0.9mph /  1.4km/h 3mph /  4.8km/h 95% 0.00in /  0mm 0 W/m2
02:14 37.9 °F /  3.3 °C 36.7 °F /  2.6 °C 30.42in /  1030hPa North 0.9mph /  1.4km/h 3mph /  4.8km/h 95% 0.00in /  0mm 0 W/m2
02:19 38 °F /  3.3 °C 36.8 °F /  2.7 °C 30.42in /  1030hPa NNE 1.3mph /  2.1km/h 4mph /  6.4km/h 95% 0.00in /  0mm 0 W/m2
02:24 38 °F /  3.3 °C 36.8 °F /  2.7 °C 30.42in /  1030hPa NNE 1mph /  1.6km/h 2mph /  3.2km/h 95% 0.00in /  0mm 0 W/m2
02:29 38 °F /  3.3 °C 36.8 °F /  2.7 °C 30.42in /  1030hPa NE 0.8mph /  1.3km/h 3mph /  4.8km/h 95% 0.00in /  0mm 0 W/m2
02:34 37.9 °F /  3.3 °C 36.7 °F /  2.6 °C 30.42in /  1030hPa NE 1mph /  1.6km/h 3mph /  4.8km/h 95% 0.00in /  0mm 0 W/m2
02:39 38.1 °F /  3.4 °C 36.9 °F /  2.7 °C 30.42in /  1030hPa NE 0.9mph /  1.4km/h 3mph /  4.8km/h 95% 0.00in /  0mm 0 W/m2
02:44 38.1 °F /  3.4 °C 36.9 °F /  2.7 °C 30.42in /  1030hPa NE 1.2mph /  1.9km/h 3mph /  4.8km/h 95% 0.00in /  0mm 0 W/m2
02:49 38.3 °F /  3.5 °C 37.1 °F /  2.8 °C 30.42in /  1030hPa ESE 1.6mph /  2.6km/h 3mph /  4.8km/h 95% 0.00in /  0mm 0 W/m2
02:54 38.7 °F /  3.7 °C 37.4 °F /  3 °C 30.42in /  1030hPa SE 2.9mph /  4.7km/h 5mph /  8km/h 95% 0.00in /  0mm 0 W/m2
02:59 38.7 °F /  3.7 °C 37.4 °F /  3 °C 30.42in /  1030hPa SE 1.3mph /  2.1km/h 4mph /  6.4km/h 95% 0.00in /  0mm 0 W/m2
03:04 38.6 °F /  3.7 °C 37.3 °F /  2.9 °C 30.42in /  1030hPa SE 1.7mph /  2.7km/h 4mph /  6.4km/h 95% 0.00in /  0mm 0 W/m2
03:09 38.5 °F /  3.6 °C 37.2 °F /  2.9 °C 30.42in /  1030hPa SE 1.6mph /  2.6km/h 6mph /  9.7km/h 95% 0.00in /  0mm 0 W/m2
03:14 38.5 °F /  3.6 °C 37.2 °F /  2.9 °C 30.41in /  1029.7hPa ESE 5.8mph /  9.3km/h 9mph /  14.5km/h 95% 0.00in /  0mm 0 W/m2
03:19 38.7 °F /  3.7 °C 37.4 °F /  3 °C 30.41in /  1029.7hPa ESE 3.2mph /  5.1km/h 9mph /  14.5km/h 95% 0.00in /  0mm 0 W/m2
03:24 38.6 °F /  3.7 °C 37.3 °F /  2.9 °C 30.42in /  1030hPa ESE 3.1mph /  5km/h 5mph /  8km/h 95% 0.00in /  0mm 0 W/m2
03:29 38.5 °F /  3.6 °C 37.2 °F /  2.9 °C 30.43in /  1030.4hPa South 1.7mph /  2.7km/h 4mph /  6.4km/h 95% 0.00in /  0mm 0 W/m2
03:34 38.3 °F /  3.5 °C 37 °F /  2.8 °C 30.44in /  1030.7hPa SW 1.7mph /  2.7km/h 4mph /  6.4km/h 95% 0.00in /  0mm 0 W/m2
03:39 38.3 °F /  3.5 °C 37 °F /  2.8 °C 30.44in /  1030.7hPa SSE 1.4mph /  2.3km/h 3mph /  4.8km/h 95% 0.00in /  0mm 0 W/m2
03:44 38.5 °F /  3.6 °C 37.2 °F /  2.9 °C 30.43in /  1030.4hPa SE 1.9mph /  3.1km/h 4mph /  6.4km/h 95% 0.00in /  0mm 0 W/m2
03:49 38.5 °F /  3.6 °C 37.2 °F /  2.9 °C 30.43in /  1030.4hPa SE 2.2mph /  3.5km/h 4mph /  6.4km/h 95% 0.00in /  0mm 0 W/m2
03:54 38.5 °F /  3.6 °C 37.2 °F /  2.9 °C 30.43in /  1030.4hPa SSE 1.5mph /  2.4km/h 5mph /  8km/h 95% 0.00in /  0mm 0 W/m2
03:59 38.3 °F /  3.5 °C 37 °F /  2.8 °C 30.43in /  1030.4hPa SE 1.8mph /  2.9km/h 3mph /  4.8km/h 95% 0.00in /  0mm 0 W/m2
04:04 38.4 °F /  3.6 °C 37.1 °F /  2.8 °C 30.43in /  1030.4hPa East 1mph /  1.6km/h 3mph /  4.8km/h 95% 0.00in /  0mm 0 W/m2
04:09 38.6 °F /  3.7 °C 37.3 °F /  2.9 °C 30.43in /  1030.4hPa ESE 1.1mph /  1.8km/h 4mph /  6.4km/h 95% 0.00in /  0mm 0 W/m2
04:14 38.7 °F /  3.7 °C 37.4 °F /  3 °C 30.42in /  1030hPa SE 1.6mph /  2.6km/h 3mph /  4.8km/h 95% 0.00in /  0mm 0 W/m2
04:19 38.7 °F /  3.7 °C 37.4 °F /  3 °C 30.43in /  1030.4hPa ESE 3.9mph /  6.3km/h 7mph /  11.3km/h 95.2% 0.00in /  0mm 0 W/m2
04:24 38.7 °F /  3.7 °C 37.5 °F /  3.1 °C 30.42in /  1030hPa ESE 2mph /  3.2km/h 5mph /  8km/h 95.5% 0.00in /  0mm 0 W/m2
04:29 38.7 °F /  3.7 °C 37.4 °F /  3 °C 30.42in /  1030hPa SE 2.4mph /  3.9km/h 6mph /  9.7km/h 95% 0.00in /  0mm 0 W/m2
04:34 38.7 °F /  3.7 °C 37.4 °F /  3 °C 30.42in /  1030hPa ESE 2.8mph /  4.5km/h 7mph /  11.3km/h 95% 0.00in /  0mm 0 W/m2
04:39 38.7 °F /  3.7 °C 37.6 °F /  3.1 °C 30.42in /  1030hPa SE 0.9mph /  1.4km/h 4mph /  6.4km/h 96% 0.00in /  0mm 0 W/m2
04:44 38.8 °F /  3.8 °C 37.8 °F /  3.2 °C 30.42in /  1030hPa SE 1mph /  1.6km/h 2mph /  3.2km/h 96% 0.00in /  0mm 0 W/m2
04:49 38.8 °F /  3.8 °C 37.8 °F /  3.2 °C 30.42in /  1030hPa East 1.8mph /  2.9km/h 5mph /  8km/h 96% 0.00in /  0mm 0 W/m2
04:54 39 °F /  3.9 °C 37.9 °F /  3.3 °C 30.43in /  1030.4hPa SE 2.4mph /  3.9km/h 5mph /  8km/h 96% 0.00in /  0mm 0 W/m2
04:59 39.1 °F /  3.9 °C 38 °F /  3.3 °C 30.43in /  1030.4hPa SSE 2mph /  3.2km/h 5mph /  8km/h 96% 0.00in /  0mm 0 W/m2
05:04 39.2 °F /  4 °C 38.1 °F /  3.4 °C 30.43in /  1030.4hPa SE 2.1mph /  3.4km/h 4mph /  6.4km/h 96% 0.00in /  0mm 0 W/m2
05:09 39 °F /  3.9 °C 37.9 °F /  3.3 °C 30.42in /  1030hPa SE 2.4mph /  3.9km/h 4mph /  6.4km/h 96% 0.00in /  0mm 0 W/m2
05:14 39 °F /  3.9 °C 37.9 °F /  3.3 °C 30.43in /  1030.4hPa SE 2.2mph /  3.5km/h 4mph /  6.4km/h 96% 0.00in /  0mm 0 W/m2
05:19 39 °F /  3.9 °C 37.9 °F /  3.3 °C 30.43in /  1030.4hPa SE 1.7mph /  2.7km/h 4mph /  6.4km/h 96% 0.00in /  0mm 0 W/m2
05:24 39 °F /  3.9 °C 37.9 °F /  3.3 °C 30.43in /  1030.4hPa SSE 2mph /  3.2km/h 3mph /  4.8km/h 96% 0.00in /  0mm 0 W/m2
05:29 39 °F /  3.9 °C 37.9 °F /  3.3 °C 30.43in /  1030.4hPa SSE 1.2mph /  1.9km/h 4mph /  6.4km/h 96% 0.00in /  0mm 0 W/m2
05:34 39.1 °F /  3.9 °C 38 °F /  3.3 °C 30.42in /  1030hPa ESE 3mph /  4.8km/h 7mph /  11.3km/h 96% 0.00in /  0mm 0 W/m2
05:39 39.4 °F /  4.1 °C 38.3 °F /  3.5 °C 30.42in /  1030hPa East 3.1mph /  5km/h 7mph /  11.3km/h 96% 0.01in /  0.25mm 0 W/m2
05:44 39.5 °F /  4.2 °C 38.4 °F /  3.6 °C 30.42in /  1030hPa SE 4.7mph /  7.6km/h 11mph /  17.7km/h 96% 0.01in /  0.25mm 0 W/m2
05:49 39.5 °F /  4.2 °C 38.3 °F /  3.5 °C 30.42in /  1030hPa SE 3.2mph /  5.1km/h 9mph /  14.5km/h 96% 0.01in /  0.25mm 0 W/m2
05:54 39.6 °F /  4.2 °C 38.5 °F /  3.6 °C 30.43in /  1030.4hPa SSE 2.1mph /  3.4km/h 7mph /  11.3km/h 96% 0.01in /  0.25mm 0 W/m2
05:59 39.6 °F /  4.2 °C 38.6 °F /  3.7 °C 30.44in /  1030.7hPa ESE 1.6mph /  2.6km/h 6mph /  9.7km/h 96% 0.01in /  0.25mm 0 W/m2
06:04 39.8 °F /  4.3 °C 38.7 °F /  3.7 °C 30.44in /  1030.7hPa ENE 0.5mph /  0.8km/h 2mph /  3.2km/h 96% 0.01in /  0.25mm 0 W/m2
06:09 39.9 °F /  4.4 °C 38.8 °F /  3.8 °C 30.43in /  1030.4hPa Calm   1mph /  1.6km/h 96% 0.01in /  0.25mm 0 W/m2
06:14 39.7 °F /  4.3 °C 38.7 °F /  3.7 °C 30.43in /  1030.4hPa ENE 0.5mph /  0.8km/h 1mph /  1.6km/h 96% 0.01in /  0.25mm 0 W/m2
06:19 39.7 °F /  4.3 °C 38.7 °F /  3.7 °C 30.43in /  1030.4hPa SE 2.4mph /  3.9km/h 4mph /  6.4km/h 96% 0.01in /  0.25mm 0 W/m2
06:24 40 °F /  4.4 °C 38.8 °F /  3.8 °C 30.43in /  1030.4hPa SSE 3.7mph /  6km/h 6mph /  9.7km/h 96% 0.01in /  0.25mm 0 W/m2
06:29 40.2 °F /  4.6 °C 39.1 °F /  3.9 °C 30.43in /  1030.4hPa SE 2.8mph /  4.5km/h 6mph /  9.7km/h 96% 0.01in /  0.25mm 0 W/m2
06:34 40.3 °F /  4.6 °C 39.2 °F /  4 °C 30.43in /  1030.4hPa SE 2.8mph /  4.5km/h 6mph /  9.7km/h 96% 0.01in /  0.25mm 0 W/m2
06:39 40.3 °F /  4.6 °C 39.2 °F /  4 °C 30.43in /  1030.4hPa SE 4.6mph /  7.4km/h 7mph /  11.3km/h 96% 0.01in /  0.25mm 0 W/m2
06:44 40.3 °F /  4.6 °C 39.2 °F /  4 °C 30.43in /  1030.4hPa ESE 2.4mph /  3.9km/h 7mph /  11.3km/h 96% 0.00in /  0mm 0 W/m2
06:49 40.4 °F /  4.7 °C 39.3 °F /  4.1 °C 30.43in /  1030.4hPa SE 3.1mph /  5km/h 6mph /  9.7km/h 96% 0.00in /  0mm 0 W/m2
06:54 40.5 °F /  4.7 °C 39.4 °F /  4.1 °C 30.43in /  1030.4hPa SE 2.7mph /  4.3km/h 5mph /  8km/h 96% 0.00in /  0mm 0 W/m2
06:59 40.5 °F /  4.7 °C 39.4 °F /  4.1 °C 30.43in /  1030.4hPa East 2.4mph /  3.9km/h 5mph /  8km/h 96% 0.00in /  0mm 0 W/m2
07:04 40.7 °F /  4.8 °C 39.7 °F /  4.3 °C 30.43in /  1030.4hPa ESE 3.5mph /  5.6km/h 6mph /  9.7km/h 96% 0.00in /  0mm 0 W/m2
07:09 41 °F /  5 °C 39.9 °F /  4.4 °C 30.43in /  1030.4hPa ESE 4mph /  6.4km/h 8mph /  12.9km/h 96% 0.00in /  0mm 0 W/m2
07:14 41.2 °F /  5.1 °C 40.1 °F /  4.5 °C 30.42in /  1030hPa ESE 4.2mph /  6.8km/h 8mph /  12.9km/h 96% 0.00in /  0mm 0 W/m2
07:19 41.4 °F /  5.2 °C 40.3 °F /  4.6 °C 30.43in /  1030.4hPa SE 3.3mph /  5.3km/h 8mph /  12.9km/h 96% 0.00in /  0mm 0 W/m2
07:24 41.4 °F /  5.2 °C 40.3 °F /  4.6 °C 30.43in /  1030.4hPa ESE 2.6mph /  4.2km/h 6mph /  9.7km/h 96% 0.00in /  0mm 0 W/m2
07:29 41.4 °F /  5.2 °C 40.3 °F /  4.6 °C 30.43in /  1030.4hPa ESE 2.5mph /  4km/h 5mph /  8km/h 96% 0.00in /  0mm 0 W/m2
07:34 41.5 °F /  5.3 °C 40.4 °F /  4.7 °C 30.43in /  1030.4hPa SE 3.7mph /  6km/h 6mph /  9.7km/h 96% 0.00in /  0mm 0 W/m2
07:39 41.5 °F /  5.3 °C 40.5 °F /  4.7 °C 30.43in /  1030.4hPa SE 2.4mph /  3.9km/h 6mph /  9.7km/h 96% 0.00in /  0mm 0 W/m2
07:44 41.5 °F /  5.3 °C 40.5 °F /  4.7 °C 30.43in /  1030.4hPa SE 1.4mph /  2.3km/h 5mph /  8km/h 96% 0.00in /  0mm 0 W/m2
07:49 41.5 °F /  5.3 °C 40.5 °F /  4.7 °C 30.43in /  1030.4hPa SE 2.7mph /  4.3km/h 8mph /  12.9km/h 96% 0.00in /  0mm 0 W/m2
07:54 41.8 °F /  5.4 °C 40.7 °F /  4.8 °C 30.43in /  1030.4hPa ESE 3.6mph /  5.8km/h 10mph /  16.1km/h 96% 0.00in /  0mm 0 W/m2
07:59 42.1 °F /  5.6 °C 41 °F /  5 °C 30.43in /  1030.4hPa ESE 3.8mph /  6.1km/h 9mph /  14.5km/h 96% 0.00in /  0mm 0 W/m2
08:04 42.3 °F /  5.7 °C 41.2 °F /  5.1 °C 30.43in /  1030.4hPa ESE 4mph /  6.4km/h 9mph /  14.5km/h 96% 0.00in /  0mm 0 W/m2
08:09 42.3 °F /  5.7 °C 41.2 °F /  5.1 °C 30.43in /  1030.4hPa ESE 6.2mph /  10km/h 11mph /  17.7km/h 96% 0.00in /  0mm 0 W/m2
08:14 42.4 °F /  5.8 °C 41.4 °F /  5.2 °C 30.44in /  1030.7hPa ESE 3.7mph /  6km/h 10mph /  16.1km/h 96% 0.00in /  0mm 0 W/m2
08:19 42.6 °F /  5.9 °C 41.5 °F /  5.3 °C 30.44in /  1030.7hPa ESE 4.6mph /  7.4km/h 11mph /  17.7km/h 96% 0.00in /  0mm 0 W/m2
08:24 42.7 °F /  5.9 °C 41.6 °F /  5.3 °C 30.44in /  1030.7hPa ESE 5.3mph /  8.5km/h 11mph /  17.7km/h 96% 0.00in /  0mm 0 W/m2
08:29 43.1 °F /  6.2 °C 42 °F /  5.6 °C 30.44in /  1030.7hPa East 7.5mph /  12.1km/h 14mph /  22.5km/h 96% 0.00in /  0mm 0 W/m2
08:34 43.2 °F /  6.2 °C 42.1 °F /  5.6 °C 30.44in /  1030.7hPa SE 4.5mph /  7.2km/h 13mph /  20.9km/h 96% 0.00in /  0mm 0 W/m2
08:39 43.2 °F /  6.2 °C 42.2 °F /  5.7 °C 30.44in /  1030.7hPa East 9.3mph /  15km/h 14mph /  22.5km/h 96% 0.00in /  0mm 0 W/m2
08:44 43.3 °F /  6.3 °C 42.3 °F /  5.7 °C 30.44in /  1030.7hPa ESE 4.1mph /  6.6km/h 14mph /  22.5km/h 96% 0.00in /  0mm 5 W/m2
08:49 43.5 °F /  6.4 °C 42.4 °F /  5.8 °C 30.44in /  1030.7hPa ESE 4.7mph /  7.6km/h 11mph /  17.7km/h 96% 0.00in /  0mm 5 W/m2
08:54 43.5 °F /  6.4 °C 42.4 °F /  5.8 °C 30.45in /  1031hPa ESE 7.4mph /  11.9km/h 12mph /  19.3km/h 96% 0.00in /  0mm 5 W/m2
08:59 43.8 °F /  6.6 °C 42.9 °F /  6.1 °C 30.45in /  1031hPa ESE 3.9mph /  6.3km/h 10mph /  16.1km/h 96.4% 0.00in /  0mm 7 W/m2
09:04 43.9 °F /  6.6 °C 42.8 °F /  6 °C 30.45in /  1031hPa SE 3.5mph /  5.6km/h 10mph /  16.1km/h 96% 0.00in /  0mm 9 W/m2
09:09 44.3 °F /  6.8 °C 43.2 °F /  6.2 °C 30.45in /  1031hPa ESE 3.3mph /  5.3km/h 9mph /  14.5km/h 96% 0.00in /  0mm 9 W/m2
09:14 44.8 °F /  7.1 °C 43.9 °F /  6.6 °C 30.45in /  1031hPa SE 1.8mph /  2.9km/h 7mph /  11.3km/h 96.6% 0.00in /  0mm 11 W/m2
09:19 44.2 °F /  6.8 °C 43.5 °F /  6.4 °C 30.45in /  1031hPa ESE 3mph /  4.8km/h 7mph /  11.3km/h 97% 0.00in /  0mm 12 W/m2
09:24 44.2 °F /  6.8 °C 43.4 °F /  6.3 °C 30.45in /  1031hPa ESE 2.5mph /  4km/h 8mph /  12.9km/h 96.8% 0.00in /  0mm 16 W/m2
09:29 44.2 °F /  6.8 °C 43.3 °F /  6.3 °C 30.45in /  1031hPa SE 2.8mph /  4.5km/h 7mph /  11.3km/h 96.4% 0.00in /  0mm 18 W/m2
09:34 44.2 °F /  6.8 °C 43.3 °F /  6.3 °C 30.45in /  1031hPa ESE 3.2mph /  5.1km/h 7mph /  11.3km/h 96.2% 0.00in /  0mm 18 W/m2
09:39 44.3 °F /  6.8 °C 43.2 °F /  6.2 °C 30.45in /  1031hPa ESE 5.4mph /  8.7km/h 9mph /  14.5km/h 96% 0.00in /  0mm 21 W/m2
09:44 44.4 °F /  6.9 °C 43.3 °F /  6.3 °C 30.45in /  1031hPa ESE 5.6mph /  9km/h 10mph /  16.1km/h 96% 0.00in /  0mm 19 W/m2
09:49 44.4 °F /  6.9 °C 43.3 °F /  6.3 °C 30.45in /  1031hPa ESE 3.7mph /  6km/h 9mph /  14.5km/h 96% 0.00in /  0mm 19 W/m2
09:54 44.5 °F /  6.9 °C 43.4 °F /  6.3 °C 30.45in /  1031hPa ESE 3mph /  4.8km/h 8mph /  12.9km/h 96% 0.00in /  0mm 19 W/m2
09:59 44.6 °F /  7 °C 43.5 °F /  6.4 °C 30.44in /  1030.7hPa ESE 3.7mph /  6km/h 9mph /  14.5km/h 96% 0.00in /  0mm 23 W/m2
10:04 44.8 °F /  7.1 °C 43.7 °F /  6.5 °C 30.44in /  1030.7hPa East 3.6mph /  5.8km/h 9mph /  14.5km/h 96% 0.00in /  0mm 26 W/m2
10:09 44.8 °F /  7.1 °C 43.7 °F /  6.5 °C 30.45in /  1031hPa East 4.9mph /  7.9km/h 10mph /  16.1km/h 96% 0.00in /  0mm 33 W/m2
10:14 44.9 °F /  7.2 °C 43.8 °F /  6.6 °C 30.45in /  1031hPa East 2.8mph /  4.5km/h 11mph /  17.7km/h 96% 0.00in /  0mm 40 W/m2
10:19 45 °F /  7.2 °C 43.9 °F /  6.6 °C 30.45in /  1031hPa East 4.6mph /  7.4km/h 9mph /  14.5km/h 96% 0.00in /  0mm 42 W/m2
10:24 45 °F /  7.2 °C 43.9 °F /  6.6 °C 30.45in /  1031hPa ESE 3.9mph /  6.3km/h 10mph /  16.1km/h 96% 0.00in /  0mm 46 W/m2
10:29 45.1 °F /  7.3 °C 44.1 °F /  6.7 °C 30.46in /  1031.4hPa East 3.3mph /  5.3km/h 8mph /  12.9km/h 96% 0.00in /  0mm 53 W/m2
10:34 45.1 °F /  7.3 °C 44.1 °F /  6.7 °C 30.46in /  1031.4hPa East 2.4mph /  3.9km/h 7mph /  11.3km/h 96% 0.00in /  0mm 47 W/m2
10:39 45.2 °F /  7.3 °C 44.1 °F /  6.7 °C 30.46in /  1031.4hPa ESE 1.7mph /  2.7km/h 3mph /  4.8km/h 96% 0.00in /  0mm 42 W/m2
10:44 45.3 °F /  7.4 °C 44.2 °F /  6.8 °C 30.46in /  1031.4hPa ESE 2mph /  3.2km/h 5mph /  8km/h 96% 0.00in /  0mm 49 W/m2
10:49 45.4 °F /  7.4 °C 44.3 °F /  6.8 °C 30.46in /  1031.4hPa East 2.4mph /  3.9km/h 6mph /  9.7km/h 96% 0.00in /  0mm 56 W/m2
10:54 45.4 °F /  7.4 °C 44.3 °F /  6.8 °C 30.46in /  1031.4hPa ESE 3mph /  4.8km/h 7mph /  11.3km/h 96% 0.00in /  0mm 54 W/m2
10:59 45.6 °F /  7.6 °C 44.5 °F /  6.9 °C 30.46in /  1031.4hPa ESE 3.6mph /  5.8km/h 8mph /  12.9km/h 96% 0.00in /  0mm 37 W/m2
11:04 45.7 °F /  7.6 °C 44.6 °F /  7 °C 30.46in /  1031.4hPa ESE 3.4mph /  5.5km/h 8mph /  12.9km/h 96% 0.00in /  0mm 32 W/m2
11:08 45.7 °F /  7.6 °C 44.6 °F /  7 °C 30.46in /  1031.4hPa ESE 2.2mph /  3.5km/h 5mph /  8km/h 96% 0.00in /  0mm 28 W/m2
11:14 45.7 °F /  7.6 °C 44.6 °F /  7 °C 30.46in /  1031.4hPa ESE 3.6mph /  5.8km/h 8mph /  12.9km/h 96% 0.00in /  0mm 39 W/m2
11:19 45.9 °F /  7.7 °C 44.8 °F /  7.1 °C 30.45in /  1031hPa ESE 5.2mph /  8.4km/h 9mph /  14.5km/h 96% 0.00in /  0mm 33 W/m2
11:24 46 °F /  7.8 °C 45 °F /  7.2 °C 30.45in /  1031hPa SE 5mph /  8km/h 10mph /  16.1km/h 96% 0.00in /  0mm 32 W/m2
11:29 46 °F /  7.8 °C 45 °F /  7.2 °C 30.45in /  1031hPa SE 3.5mph /  5.6km/h 10mph /  16.1km/h 96% 0.00in /  0mm 28 W/m2
11:34 46 °F /  7.8 °C 45 °F /  7.2 °C 30.45in /  1031hPa SE 4.5mph /  7.2km/h 10mph /  16.1km/h 96% 0.00in /  0mm 32 W/m2
11:39 46.1 °F /  7.8 °C 45.1 °F /  7.3 °C 30.45in /  1031hPa SE 3.6mph /  5.8km/h 9mph /  14.5km/h 96% 0.00in /  0mm 30 W/m2
11:44 46.1 °F /  7.8 °C 45.1 °F /  7.3 °C 30.46in /  1031.4hPa ESE 6.3mph /  10.1km/h 12mph /  19.3km/h 96% 0.00in /  0mm 26 W/m2
11:49 46 °F /  7.8 °C 44.7 °F /  7.1 °C 30.46in /  1031.4hPa SSE 6.2mph /  10km/h 12mph /  19.3km/h 95.2% 0.00in /  0mm 32 W/m2
11:54 46 °F /  7.8 °C 44.6 °F /  7 °C 30.46in /  1031.4hPa SSE 5.5mph /  8.9km/h 13mph /  20.9km/h 95% 0.00in /  0mm 39 W/m2
11:59 46 °F /  7.8 °C 44.6 °F /  7 °C 30.46in /  1031.4hPa SSE 4.8mph /  7.7km/h 13mph /  20.9km/h 95% 0.00in /  0mm 40 W/m2
12:03 46.2 °F /  7.9 °C 44.8 °F /  7.1 °C 30.46in /  1031.4hPa SE 10mph /  16.1km/h 17mph /  27.4km/h 95% 0.00in /  0mm 49 W/m2
12:09 46.2 °F /  7.9 °C 44.7 °F /  7.1 °C 30.46in /  1031.4hPa SE 5.1mph /  8.2km/h 17mph /  27.4km/h 94.6% 0.00in /  0mm 47 W/m2
12:14 46.2 °F /  7.9 °C 44.6 °F /  7 °C 30.46in /  1031.4hPa SE 6.6mph /  10.6km/h 11mph /  17.7km/h 94% 0.00in /  0mm 40 W/m2
12:19 46.1 °F /  7.8 °C 44.5 °F /  6.9 °C 30.46in /  1031.4hPa SSE 3.7mph /  6km/h 8mph /  12.9km/h 94% 0.00in /  0mm 23 W/m2
12:24 46 °F /  7.8 °C 44.2 °F /  6.8 °C 30.46in /  1031.4hPa SSE 4.1mph /  6.6km/h 8mph /  12.9km/h 93.2% 0.00in /  0mm 30 W/m2
12:29 46 °F /  7.8 °C 44.1 °F /  6.7 °C 30.46in /  1031.4hPa SE 4.9mph /  7.9km/h 11mph /  17.7km/h 93% 0.00in /  0mm 37 W/m2
12:34 46 °F /  7.8 °C 44.1 °F /  6.7 °C 30.45in /  1031hPa SE 9.2mph /  14.8km/h 16mph /  25.7km/h 93% 0.00in /  0mm 37 W/m2
12:39 46 °F /  7.8 °C 44 °F /  6.7 °C 30.45in /  1031hPa ESE 7.5mph /  12.1km/h 16mph /  25.7km/h 92.6% 0.00in /  0mm 39 W/m2
12:44 46 °F /  7.8 °C 44 °F /  6.7 °C 30.45in /  1031hPa SE 4.2mph /  6.8km/h 14mph /  22.5km/h 92.4% 0.00in /  0mm 46 W/m2
12:49 46.1 °F /  7.8 °C 44 °F /  6.7 °C 30.45in /  1031hPa SE 4mph /  6.4km/h 10mph /  16.1km/h 92% 0.00in /  0mm 33 W/m2
12:54 46.2 °F /  7.9 °C 44.1 °F /  6.7 °C 30.45in /  1031hPa ESE 4.6mph /  7.4km/h 11mph /  17.7km/h 92% 0.00in /  0mm 46 W/m2
12:59 46.2 °F /  7.9 °C 43.9 °F /  6.6 °C 30.45in /  1031hPa ESE 2.9mph /  4.7km/h 10mph /  16.1km/h 91.4% 0.00in /  0mm 51 W/m2
13:04 46.5 °F /  8.1 °C 44.1 °F /  6.7 °C 30.44in /  1030.7hPa ESE 5.3mph /  8.5km/h 10mph /  16.1km/h 91.4% 0.00in /  0mm 56 W/m2
13:09 46.6 °F /  8.1 °C 44.1 °F /  6.7 °C 30.44in /  1030.7hPa ESE 6.3mph /  10.1km/h 11mph /  17.7km/h 91% 0.00in /  0mm 44 W/m2
13:14 46.6 °F /  8.1 °C 44.1 °F /  6.7 °C 30.44in /  1030.7hPa ESE 6.6mph /  10.6km/h 12mph /  19.3km/h 91% 0.00in /  0mm 39 W/m2
13:19 46.6 °F /  8.1 °C 44.1 °F /  6.7 °C 30.44in /  1030.7hPa ESE 4.5mph /  7.2km/h 12mph /  19.3km/h 91% 0.00in /  0mm 35 W/m2
13:24 46.6 °F /  8.1 °C 44.1 °F /  6.7 °C 30.44in /  1030.7hPa ESE 4.5mph /  7.2km/h 10mph /  16.1km/h 91% 0.00in /  0mm 28 W/m2
13:29 46.6 °F /  8.1 °C 43.9 °F /  6.6 °C 30.44in /  1030.7hPa ESE 5mph /  8km/h 9mph /  14.5km/h 90.2% 0.00in /  0mm 28 W/m2
13:34 46.6 °F /  8.1 °C 43.9 °F /  6.6 °C 30.44in /  1030.7hPa SE 5mph /  8km/h 10mph /  16.1km/h 90% 0.00in /  0mm 33 W/m2
13:39 46.8 °F /  8.2 °C 44.1 °F /  6.7 °C 30.44in /  1030.7hPa ESE 3.9mph /  6.3km/h 9mph /  14.5km/h 90% 0.00in /  0mm 33 W/m2
13:44 46.8 °F /  8.2 °C 44.1 °F /  6.7 °C 30.43in /  1030.4hPa ESE 4.7mph /  7.6km/h 9mph /  14.5km/h 90% 0.00in /  0mm 32 W/m2
13:49 46.8 °F /  8.2 °C 43.9 °F /  6.6 °C 30.43in /  1030.4hPa ESE 5.4mph /  8.7km/h 10mph /  16.1km/h 89.2% 0.00in /  0mm 32 W/m2
13:54 46.9 °F /  8.3 °C 43.9 °F /  6.6 °C 30.43in /  1030.4hPa ESE 4.3mph /  6.9km/h 12mph /  19.3km/h 89% 0.00in /  0mm 23 W/m2
13:59 46.9 °F /  8.3 °C 43.9 °F /  6.6 °C 30.43in /  1030.4hPa ESE 2.2mph /  3.5km/h 8mph /  12.9km/h 89% 0.00in /  0mm 21 W/m2
14:04 46.9 °F /  8.3 °C 43.9 °F /  6.6 °C 30.43in /  1030.4hPa East 4.2mph /  6.8km/h 9mph /  14.5km/h 89% 0.00in /  0mm 19 W/m2
14:09 46.9 °F /  8.3 °C 43.9 °F /  6.6 °C 30.43in /  1030.4hPa SE 3.7mph /  6km/h 9mph /  14.5km/h 89% 0.00in /  0mm 23 W/m2
14:14 46.9 °F /  8.3 °C 43.9 °F /  6.6 °C 30.43in /  1030.4hPa ESE 2.4mph /  3.9km/h 8mph /  12.9km/h 89% 0.00in /  0mm 26 W/m2
14:19 46.9 °F /  8.3 °C 43.9 °F /  6.6 °C 30.43in /  1030.4hPa ESE 3.6mph /  5.8km/h 9mph /  14.5km/h 89% 0.00in /  0mm 26 W/m2
14:24 46.9 °F /  8.3 °C 43.9 °F /  6.6 °C 30.42in /  1030hPa SE 4mph /  6.4km/h 8mph /  12.9km/h 89% 0.00in /  0mm 16 W/m2
14:29 46.9 °F /  8.3 °C 43.9 °F /  6.6 °C 30.42in /  1030hPa ESE 4.1mph /  6.6km/h 9mph /  14.5km/h 89% 0.00in /  0mm 19 W/m2
14:34 46.9 °F /  8.3 °C 43.9 °F /  6.6 °C 30.42in /  1030hPa ESE 5.6mph /  9km/h 10mph /  16.1km/h 89% 0.00in /  0mm 14 W/m2
14:39 47 °F /  8.3 °C 44 °F /  6.7 °C 30.43in /  1030.4hPa ESE 2.4mph /  3.9km/h 8mph /  12.9km/h 89% 0.00in /  0mm 18 W/m2
14:44 47.1 °F /  8.4 °C 44.1 °F /  6.7 °C 30.43in /  1030.4hPa ESE 6.8mph /  10.9km/h 15mph /  24.1km/h 89% 0.00in /  0mm 18 W/m2
14:49 47.1 °F /  8.4 °C 44.1 °F /  6.7 °C 30.43in /  1030.4hPa East 5.9mph /  9.5km/h 15mph /  24.1km/h 89% 0.00in /  0mm 18 W/m2
14:54 47.1 °F /  8.4 °C 44.1 °F /  6.7 °C 30.43in /  1030.4hPa ESE 5.4mph /  8.7km/h 11mph /  17.7km/h 89% 0.00in /  0mm 14 W/m2
14:58 46.9 °F /  8.3 °C 43.9 °F /  6.6 °C 30.43in /  1030.4hPa ESE 3mph /  4.8km/h 9mph /  14.5km/h 89% 0.00in /  0mm 14 W/m2
15:04 46.9 °F /  8.3 °C 43.9 °F /  6.6 °C 30.43in /  1030.4hPa SE 5mph /  8km/h 10mph /  16.1km/h 89% 0.00in /  0mm 14 W/m2
15:09 46.9 °F /  8.3 °C 43.9 °F /  6.6 °C 30.42in /  1030hPa ESE 5.3mph /  8.5km/h 9mph /  14.5km/h 89% 0.00in /  0mm 12 W/m2
15:14 46.9 °F /  8.3 °C 43.4 °F /  6.3 °C 30.42in /  1030hPa ESE 4.4mph /  7.1km/h 9mph /  14.5km/h 88% 0.00in /  0mm 11 W/m2
15:19 46.9 °F /  8.3 °C 43.5 °F /  6.4 °C 30.42in /  1030hPa East 6.4mph /  10.3km/h 13mph /  20.9km/h 88% 0.00in /  0mm 11 W/m2
15:24 46.9 °F /  8.3 °C 43.5 °F /  6.4 °C 30.42in /  1030hPa ESE 4.2mph /  6.8km/h 9mph /  14.5km/h 88% 0.00in /  0mm 12 W/m2
15:29 47 °F /  8.3 °C 43.6 °F /  6.4 °C 30.42in /  1030hPa ESE 3.7mph /  6km/h 12mph /  19.3km/h 88% 0.00in /  0mm 12 W/m2
15:34 47.1 °F /  8.4 °C 43.7 °F /  6.5 °C 30.42in /  1030hPa East 4.9mph /  7.9km/h 11mph /  17.7km/h 88% 0.00in /  0mm 11 W/m2
15:38 47.1 °F /  8.4 °C 43.7 °F /  6.5 °C 30.42in /  1030hPa ESE 4.5mph /  7.2km/h 11mph /  17.7km/h 88% 0.00in /  0mm 11 W/m2
15:44 47.1 °F /  8.4 °C 43.7 °F /  6.5 °C 30.41in /  1029.7hPa East 6.4mph /  10.3km/h 15mph /  24.1km/h 88% 0.00in /  0mm 7 W/m2
15:49 47.1 °F /  8.4 °C 43.7 °F /  6.5 °C 30.41in /  1029.7hPa ESE 3.6mph /  5.8km/h 9mph /  14.5km/h 88% 0.00in /  0mm 7 W/m2
15:54 47.1 °F /  8.4 °C 43.7 °F /  6.5 °C 30.41in /  1029.7hPa East 4.7mph /  7.6km/h 9mph /  14.5km/h 88% 0.00in /  0mm 5 W/m2
15:59 47.1 °F /  8.4 °C 43.7 °F /  6.5 °C 30.41in /  1029.7hPa East 4.5mph /  7.2km/h 9mph /  14.5km/h 88% 0.00in /  0mm 5 W/m2
16:04 47.1 °F /  8.4 °C 43.7 °F /  6.5 °C 30.41in /  1029.7hPa ESE 2.2mph /  3.5km/h 7mph /  11.3km/h 88% 0.00in /  0mm 0 W/m2
16:09 47.1 °F /  8.4 °C 43.7 °F /  6.5 °C 30.41in /  1029.7hPa ESE 2.6mph /  4.2km/h 8mph /  12.9km/h 88% 0.00in /  0mm 0 W/m2
16:14 47.1 °F /  8.4 °C 43.7 °F /  6.5 °C 30.42in /  1030hPa ESE 2.2mph /  3.5km/h 5mph /  8km/h 88% 0.00in /  0mm 0 W/m2
16:19 47.1 °F /  8.4 °C 43.7 °F /  6.5 °C 30.42in /  1030hPa SE 2.1mph /  3.4km/h 5mph /  8km/h 88% 0.00in /  0mm 0 W/m2
16:24 47.1 °F /  8.4 °C 43.7 °F /  6.5 °C 30.42in /  1030hPa ESE 2.4mph /  3.9km/h 5mph /  8km/h 88% 0.00in /  0mm 0 W/m2
16:29 47.1 °F /  8.4 °C 43.7 °F /  6.5 °C 30.42in /  1030hPa ESE 1.7mph /  2.7km/h 7mph /  11.3km/h 88% 0.00in /  0mm 0 W/m2
16:33 47.1 °F /  8.4 °C 44.1 °F /  6.7 °C 30.42in /  1030hPa ESE 2.7mph /  4.3km/h 5mph /  8km/h 89% 0.00in /  0mm 0 W/m2
16:39 47.1 °F /  8.4 °C 44.1 °F /  6.7 °C 30.42in /  1030hPa ESE 2.1mph /  3.4km/h 5mph /  8km/h 89% 0.00in /  0mm 0 W/m2
16:44 47.1 °F /  8.4 °C 44.1 °F /  6.7 °C 30.42in /  1030hPa East 1.3mph /  2.1km/h 4mph /  6.4km/h 89% 0.00in /  0mm 0 W/m2
16:49 47.1 °F /  8.4 °C 44.1 °F /  6.7 °C 30.42in /  1030hPa ENE 2.4mph /  3.9km/h 6mph /  9.7km/h 89% 0.00in /  0mm 0 W/m2
16:54 47.1 °F /  8.4 °C 44.1 °F /  6.7 °C 30.42in /  1030hPa East 1.9mph /  3.1km/h 7mph /  11.3km/h 89% 0.00in /  0mm 0 W/m2
16:59 47.2 °F /  8.4 °C 44.2 °F /  6.8 °C 30.42in /  1030hPa ENE 2.7mph /  4.3km/h 6mph /  9.7km/h 89% 0.00in /  0mm 0 W/m2
17:04 47.3 °F /  8.5 °C 44.2 °F /  6.8 °C 30.42in /  1030hPa East 4mph /  6.4km/h 7mph /  11.3km/h 89% 0.00in /  0mm 0 W/m2
17:09 47.3 °F /  8.5 °C 44.2 °F /  6.8 °C 30.42in /  1030hPa East 2.5mph /  4km/h 7mph /  11.3km/h 89% 0.00in /  0mm 0 W/m2
17:14 47.3 °F /  8.5 °C 44.2 °F /  6.8 °C 30.42in /  1030hPa ENE 1.7mph /  2.7km/h 5mph /  8km/h 89% 0.00in /  0mm 0 W/m2
17:19 47.4 °F /  8.6 °C 44.3 °F /  6.8 °C 30.42in /  1030hPa East 1.7mph /  2.7km/h 7mph /  11.3km/h 89% 0.00in /  0mm 0 W/m2
17:24 47.4 °F /  8.6 °C 44.3 °F /  6.8 °C 30.42in /  1030hPa East 2.4mph /  3.9km/h 6mph /  9.7km/h 89% 0.00in /  0mm 0 W/m2
17:29 47.5 °F /  8.6 °C 44.4 °F /  6.9 °C 30.42in /  1030hPa East 1.9mph /  3.1km/h 7mph /  11.3km/h 89% 0.00in /  0mm 0 W/m2
17:34 47.5 °F /  8.6 °C 44.4 °F /  6.9 °C 30.41in /  1029.7hPa ESE 4.2mph /  6.8km/h 8mph /  12.9km/h 89% 0.00in /  0mm 0 W/m2
17:39 47.5 °F /  8.6 °C 44.4 °F /  6.9 °C 30.41in /  1029.7hPa ESE 3.2mph /  5.1km/h 8mph /  12.9km/h 89% 0.00in /  0mm 0 W/m2
17:44 47.5 °F /  8.6 °C 44.4 °F /  6.9 °C 30.41in /  1029.7hPa ESE 5.3mph /  8.5km/h 9mph /  14.5km/h 89% 0.00in /  0mm 0 W/m2
17:49 47.5 °F /  8.6 °C 44.4 °F /  6.9 °C 30.41in /  1029.7hPa East 2.7mph /  4.3km/h 7mph /  11.3km/h 89% 0.00in /  0mm 0 W/m2
17:54 47.5 °F /  8.6 °C 44.1 °F /  6.7 °C 30.41in /  1029.7hPa East 4.9mph /  7.9km/h 9mph /  14.5km/h 88% 0.00in /  0mm 0 W/m2
17:59 47.7 °F /  8.7 °C 44.2 °F /  6.8 °C 30.41in /  1029.7hPa East 3.6mph /  5.8km/h 9mph /  14.5km/h 88% 0.00in /  0mm 0 W/m2
18:04 47.7 °F /  8.7 °C 44.2 °F /  6.8 °C 30.41in /  1029.7hPa East 4.1mph /  6.6km/h 9mph /  14.5km/h 88% 0.00in /  0mm 0 W/m2
18:09 47.7 °F /  8.7 °C 44.2 °F /  6.8 °C 30.41in /  1029.7hPa ENE 6mph /  9.7km/h 13mph /  20.9km/h 88% 0.00in /  0mm 0 W/m2
18:14 47.7 °F /  8.7 °C 44.2 °F /  6.8 °C 30.41in /  1029.7hPa ESE 5.5mph /  8.9km/h 9mph /  14.5km/h 88% 0.00in /  0mm 0 W/m2
18:18 47.7 °F /  8.7 °C 44.2 °F /  6.8 °C 30.41in /  1029.7hPa East 2.7mph /  4.3km/h 9mph /  14.5km/h 88% 0.00in /  0mm 0 W/m2
18:24 47.7 °F /  8.7 °C 44.2 °F /  6.8 °C 30.41in /  1029.7hPa ESE 6mph /  9.7km/h 11mph /  17.7km/h 88% 0.00in /  0mm 0 W/m2
18:29 47.8 °F /  8.8 °C 44.2 °F /  6.8 °C 30.42in /  1030hPa ESE 5.1mph /  8.2km/h 11mph /  17.7km/h 87.6% 0.00in /  0mm 0 W/m2
18:34 47.8 °F /  8.8 °C 44.2 °F /  6.8 °C 30.42in /  1030hPa ESE 3.2mph /  5.1km/h 9mph /  14.5km/h 87% 0.00in /  0mm 0 W/m2
18:39 47.8 °F /  8.8 °C 44.2 °F /  6.8 °C 30.42in /  1030hPa ESE 4.4mph /  7.1km/h 10mph /  16.1km/h 87% 0.00in /  0mm 0 W/m2
18:44 47.8 °F /  8.8 °C 44.2 °F /  6.8 °C 30.42in /  1030hPa East 5.2mph /  8.4km/h 9mph /  14.5km/h 87% 0.00in /  0mm 0 W/m2
18:49 47.8 °F /  8.8 °C 44.2 °F /  6.8 °C 30.42in /  1030hPa ESE 4.3mph /  6.9km/h 10mph /  16.1km/h 87% 0.00in /  0mm 0 W/m2
18:54 48 °F /  8.9 °C 44.3 °F /  6.8 °C 30.42in /  1030hPa ESE 5.5mph /  8.9km/h 11mph /  17.7km/h 86.8% 0.00in /  0mm 0 W/m2
18:59 47.9 °F /  8.8 °C 44 °F /  6.7 °C 30.41in /  1029.7hPa ESE 5.6mph /  9km/h 10mph /  16.1km/h 86.2% 0.00in /  0mm 0 W/m2
19:04 47.8 °F /  8.8 °C 44.2 °F /  6.8 °C 30.41in /  1029.7hPa ESE 4.7mph /  7.6km/h 9mph /  14.5km/h 87% 0.00in /  0mm 0 W/m2
19:09 47.8 °F /  8.8 °C 44.1 °F /  6.7 °C 30.41in /  1029.7hPa ESE 5.2mph /  8.4km/h 9mph /  14.5km/h 86.6% 0.00in /  0mm 0 W/m2
19:14 47.8 °F /  8.8 °C 44 °F /  6.7 °C 30.42in /  1030hPa ESE 4.9mph /  7.9km/h 10mph /  16.1km/h 86.2% 0.00in /  0mm 0 W/m2
19:19 47.8 °F /  8.8 °C 43.9 °F /  6.6 °C 30.41in /  1029.7hPa ESE 2.8mph /  4.5km/h 10mph /  16.1km/h 86% 0.00in /  0mm 0 W/m2
19:24 47.7 °F /  8.7 °C 43.8 °F /  6.6 °C 30.42in /  1030hPa ESE 5.2mph /  8.4km/h 11mph /  17.7km/h 86% 0.00in /  0mm 0 W/m2
19:29 47.7 °F /  8.7 °C 43.8 °F /  6.6 °C 30.42in /  1030hPa ESE 3.5mph /  5.6km/h 11mph /  17.7km/h 86% 0.00in /  0mm 0 W/m2
19:34 47.7 °F /  8.7 °C 43.7 °F /  6.5 °C 30.41in /  1029.7hPa East 4.4mph /  7.1km/h 11mph /  17.7km/h 86% 0.00in /  0mm 0 W/m2
19:39 47.6 °F /  8.7 °C 43.6 °F /  6.4 °C 30.41in /  1029.7hPa East 5.1mph /  8.2km/h 11mph /  17.7km/h 86% 0.00in /  0mm 0 W/m2
19:44 47.5 °F /  8.6 °C 43.5 °F /  6.4 °C 30.41in /  1029.7hPa East 3.7mph /  6km/h 7mph /  11.3km/h 86% 0.00in /  0mm 0 W/m2
19:49 47.5 °F /  8.6 °C 43.5 °F /  6.4 °C 30.41in /  1029.7hPa East 4.9mph /  7.9km/h 12mph /  19.3km/h 86% 0.00in /  0mm 0 W/m2
19:54 47.5 °F /  8.6 °C 43.5 °F /  6.4 °C 30.41in /  1029.7hPa East 5.8mph /  9.3km/h 12mph /  19.3km/h 86% 0.00in /  0mm 0 W/m2
19:59 47.3 °F /  8.5 °C 43.3 °F /  6.3 °C 30.42in /  1030hPa East 6.1mph /  9.8km/h 10mph /  16.1km/h 86% 0.00in /  0mm 0 W/m2
20:04 47.3 °F /  8.5 °C 43.3 °F /  6.3 °C 30.42in /  1030hPa East 4.6mph /  7.4km/h 10mph /  16.1km/h 86% 0.00in /  0mm 0 W/m2
20:09 47.2 °F /  8.4 °C 43.2 °F /  6.2 °C 30.42in /  1030hPa ESE 3.7mph /  6km/h 9mph /  14.5km/h 86% 0.00in /  0mm 0 W/m2
20:14 47.1 °F /  8.4 °C 43.2 °F /  6.2 °C 30.42in /  1030hPa East 4.2mph /  6.8km/h 8mph /  12.9km/h 86% 0.00in /  0mm 0 W/m2
20:19 47.1 °F /  8.4 °C 43.2 °F /  6.2 °C 30.42in /  1030hPa SE 4.8mph /  7.7km/h 10mph /  16.1km/h 86% 0.00in /  0mm 0 W/m2
20:24 47.1 °F /  8.4 °C 43.2 °F /  6.2 °C 30.42in /  1030hPa ESE 2.8mph /  4.5km/h 10mph /  16.1km/h 86% 0.00in /  0mm 0 W/m2
20:29 47.1 °F /  8.4 °C 43.2 °F /  6.2 °C 30.42in /  1030hPa SE 3.2mph /  5.1km/h 9mph /  14.5km/h 86% 0.00in /  0mm 0 W/m2
20:34 47.1 °F /  8.4 °C 43.2 °F /  6.2 °C 30.42in /  1030hPa ESE 3.2mph /  5.1km/h 8mph /  12.9km/h 86% 0.00in /  0mm 0 W/m2
20:39 47.1 °F /  8.4 °C 43.2 °F /  6.2 °C 30.42in /  1030hPa ESE 3.1mph /  5km/h 7mph /  11.3km/h 86% 0.00in /  0mm 0 W/m2
20:44 46.9 °F /  8.3 °C 43 °F /  6.1 °C 30.42in /  1030hPa East 3.7mph /  6km/h 8mph /  12.9km/h 86% 0.00in /  0mm 0 W/m2
20:49 46.9 °F /  8.3 °C 43 °F /  6.1 °C 30.42in /  1030hPa SE 2.8mph /  4.5km/h 8mph /  12.9km/h 86% 0.00in /  0mm 0 W/m2
20:54 46.8 °F /  8.2 °C 42.8 °F /  6 °C 30.42in /  1030hPa SE 3mph /  4.8km/h 5mph /  8km/h 86% 0.00in /  0mm 0 W/m2
20:59 46.8 °F /  8.2 °C 42.8 °F /  6 °C 30.42in /  1030hPa SE 3.6mph /  5.8km/h 7mph /  11.3km/h 86% 0.00in /  0mm 0 W/m2
21:04 46.6 °F /  8.1 °C 42.6 °F /  5.9 °C 30.42in /  1030hPa SSE 4.8mph /  7.7km/h 10mph /  16.1km/h 86% 0.00in /  0mm 0 W/m2
21:09 46.6 °F /  8.1 °C 42.6 °F /  5.9 °C 30.41in /  1029.7hPa SE 4mph /  6.4km/h 7mph /  11.3km/h 86% 0.00in /  0mm 0 W/m2
21:14 46.3 °F /  7.9 °C 42.4 °F /  5.8 °C 30.41in /  1029.7hPa SE 2.7mph /  4.3km/h 6mph /  9.7km/h 86% 0.00in /  0mm 0 W/m2
21:19 46.2 °F /  7.9 °C 42.3 °F /  5.7 °C 30.41in /  1029.7hPa ESE 3.7mph /  6km/h 6mph /  9.7km/h 86% 0.00in /  0mm 0 W/m2
21:24 46.2 °F /  7.9 °C 42.3 °F /  5.7 °C 30.42in /  1030hPa SE 2.7mph /  4.3km/h 5mph /  8km/h 86% 0.00in /  0mm 0 W/m2
21:29 46 °F /  7.8 °C 42.1 °F /  5.6 °C 30.42in /  1030hPa SE 2.5mph /  4km/h 9mph /  14.5km/h 86% 0.00in /  0mm 0 W/m2
21:34 45.9 °F /  7.7 °C 41.5 °F /  5.3 °C 30.42in /  1030hPa ESE 4.5mph /  7.2km/h 9mph /  14.5km/h 85% 0.00in /  0mm 0 W/m2
21:39 45.9 °F /  7.7 °C 41.5 °F /  5.3 °C 30.42in /  1030hPa SE 3.7mph /  6km/h 10mph /  16.1km/h 85% 0.00in /  0mm 0 W/m2
21:44 45.9 °F /  7.7 °C 41.5 °F /  5.3 °C 30.42in /  1030hPa ESE 3.3mph /  5.3km/h 11mph /  17.7km/h 85% 0.00in /  0mm 0 W/m2
21:49 46 °F /  7.8 °C 41.7 °F /  5.4 °C 30.42in /  1030hPa ESE 5.1mph /  8.2km/h 9mph /  14.5km/h 85% 0.00in /  0mm 0 W/m2
21:54 46 °F /  7.8 °C 41.6 °F /  5.3 °C 30.42in /  1030hPa SE 2.8mph /  4.5km/h 8mph /  12.9km/h 84.6% 0.00in /  0mm 0 W/m2
21:59 46 °F /  7.8 °C 41.5 °F /  5.3 °C 30.42in /  1030hPa East 5.4mph /  8.7km/h 10mph /  16.1km/h 84.2% 0.00in /  0mm 0 W/m2
22:04 46 °F /  7.8 °C 41.5 °F /  5.3 °C 30.41in /  1029.7hPa SE 4.8mph /  7.7km/h 9mph /  14.5km/h 84% 0.00in /  0mm 0 W/m2
22:09 46 °F /  7.8 °C 41.5 °F /  5.3 °C 30.41in /  1029.7hPa ESE 2.9mph /  4.7km/h 5mph /  8km/h 84% 0.00in /  0mm 0 W/m2
22:14 46 °F /  7.8 °C 41.5 °F /  5.3 °C 30.41in /  1029.7hPa ESE 5.1mph /  8.2km/h 8mph /  12.9km/h 84% 0.00in /  0mm 0 W/m2
22:19 46 °F /  7.8 °C 41.5 °F /  5.3 °C 30.41in /  1029.7hPa East 4.6mph /  7.4km/h 9mph /  14.5km/h 84% 0.00in /  0mm 0 W/m2
22:24 46 °F /  7.8 °C 41.7 °F /  5.4 °C 30.41in /  1029.7hPa ESE 3.2mph /  5.1km/h 8mph /  12.9km/h 84.8% 0.00in /  0mm 0 W/m2
22:29 46 °F /  7.8 °C 41.6 °F /  5.3 °C 30.41in /  1029.7hPa ESE 3.6mph /  5.8km/h 9mph /  14.5km/h 85% 0.00in /  0mm 0 W/m2
22:34 45.9 °F /  7.7 °C 41.5 °F /  5.3 °C 30.41in /  1029.7hPa East 3.1mph /  5km/h 9mph /  14.5km/h 85% 0.00in /  0mm 0 W/m2
22:39 45.9 °F /  7.7 °C 41.5 °F /  5.3 °C 30.41in /  1029.7hPa East 5.4mph /  8.7km/h 11mph /  17.7km/h 85% 0.00in /  0mm 0 W/m2
22:44 45.8 °F /  7.7 °C 41.4 °F /  5.2 °C 30.41in /  1029.7hPa East 5.3mph /  8.5km/h 10mph /  16.1km/h 85% 0.00in /  0mm 0 W/m2
22:49 45.7 °F /  7.6 °C 41.4 °F /  5.2 °C 30.41in /  1029.7hPa East 3.8mph /  6.1km/h 8mph /  12.9km/h 85% 0.00in /  0mm 0 W/m2
22:54 45.7 °F /  7.6 °C 41.4 °F /  5.2 °C 30.41in /  1029.7hPa East 5mph /  8km/h 10mph /  16.1km/h 85% 0.00in /  0mm 0 W/m2
22:59 45.7 °F /  7.6 °C 41.4 °F /  5.2 °C 30.40in /  1029.3hPa East 2.9mph /  4.7km/h 9mph /  14.5km/h 85% 0.00in /  0mm 0 W/m2
23:04 45.7 °F /  7.6 °C 41.4 °F /  5.2 °C 30.41in /  1029.7hPa East 5.8mph /  9.3km/h 10mph /  16.1km/h 85% 0.00in /  0mm 0 W/m2
23:09 45.6 °F /  7.6 °C 41.3 °F /  5.2 °C 30.41in /  1029.7hPa SE 3.5mph /  5.6km/h 10mph /  16.1km/h 85% 0.00in /  0mm 0 W/m2
23:14 45.5 °F /  7.5 °C 41.2 °F /  5.1 °C 30.40in /  1029.3hPa ESE 3.7mph /  6km/h 8mph /  12.9km/h 85% 0.00in /  0mm 0 W/m2
23:19 45.5 °F /  7.5 °C 41.2 °F /  5.1 °C 30.40in /  1029.3hPa ESE 4mph /  6.4km/h 8mph /  12.9km/h 85% 0.00in /  0mm 0 W/m2
23:24 45.5 °F /  7.5 °C 41.2 °F /  5.1 °C 30.40in /  1029.3hPa ESE 3.6mph /  5.8km/h 8mph /  12.9km/h 85% 0.00in /  0mm 0 W/m2
23:29 45.4 °F /  7.4 °C 41.2 °F /  5.1 °C 30.40in /  1029.3hPa East 5.3mph /  8.5km/h 10mph /  16.1km/h 85.4% 0.00in /  0mm 0 W/m2
23:34 45.3 °F /  7.4 °C 41.4 °F /  5.2 °C 30.40in /  1029.3hPa ESE 3.9mph /  6.3km/h 10mph /  16.1km/h 86% 0.00in /  0mm 0 W/m2
23:39 45.3 °F /  7.4 °C 41.4 °F /  5.2 °C 30.40in /  1029.3hPa East 6.1mph /  9.8km/h 10mph /  16.1km/h 86% 0.00in /  0mm 0 W/m2
23:44 45.3 °F /  7.4 °C 41.4 °F /  5.2 °C 30.40in /  1029.3hPa ESE 4.4mph /  7.1km/h 10mph /  16.1km/h 86% 0.00in /  0mm 0 W/m2
23:49 45.3 °F /  7.4 °C 41.3 °F /  5.2 °C 30.40in /  1029.3hPa ESE 4.4mph /  7.1km/h 10mph /  16.1km/h 85.8% 0.00in /  0mm 0 W/m2
23:54 45.2 °F /  7.3 °C 41 °F /  5 °C 30.40in /  1029.3hPa ESE 2.5mph /  4km/h 7mph /  11.3km/h 85.4% 0.00in /  0mm 0 W/m2
23:59 45.1 °F /  7.3 °C 41 °F /  5 °C 30.40in /  1029.3hPa ESE 5.2mph /  8.4km/h 10mph /  16.1km/h 85.6% 0.00in /  0mm 0 W/m2
Bath Spa Weather
Compliments of Weather Underground - 2 mb